createdAt,value
2018-04-29T00:01:42.623Z,16.10
2018-04-29T00:04:10.339Z,16.21
2018-04-29T00:06:38.063Z,16.15
2018-04-29T00:09:05.782Z,16.17
2018-04-29T00:11:33.434Z,16.11
2018-04-29T00:14:01.082Z,16.09
2018-04-29T00:16:28.705Z,16.15
2018-04-29T00:18:56.309Z,16.10
2018-04-29T00:21:23.981Z,16.09
2018-04-29T00:23:51.669Z,16.13
2018-04-29T00:26:19.385Z,16.14
2018-04-29T00:28:47.090Z,16.16
2018-04-29T00:31:14.767Z,16.19
2018-04-29T00:33:42.434Z,15.97
2018-04-29T00:36:10.154Z,16.11
2018-04-29T00:38:37.852Z,16.11
2018-04-29T00:41:05.486Z,16.14
2018-04-29T00:43:33.186Z,15.97
2018-04-29T00:46:00.865Z,15.96
2018-04-29T00:48:28.563Z,15.99
2018-04-29T00:50:56.234Z,16.04
2018-04-29T00:53:23.845Z,16.24
2018-04-29T00:55:51.471Z,16.27
2018-04-29T00:58:19.154Z,16.29
2018-04-29T01:00:46.770Z,16.33
2018-04-29T01:03:14.470Z,16.33
2018-04-29T01:05:42.121Z,16.33
2018-04-29T01:08:09.724Z,16.41
2018-04-29T01:10:37.322Z,16.30
2018-04-29T01:13:04.949Z,16.24
2018-04-29T01:15:32.529Z,16.42
2018-04-29T01:18:00.157Z,16.54
2018-04-29T01:20:27.792Z,16.45
2018-04-29T01:22:55.465Z,16.51
2018-04-29T01:25:23.053Z,16.52
2018-04-29T01:27:50.669Z,16.64
2018-04-29T01:30:18.254Z,16.53
2018-04-29T01:32:45.846Z,16.50
2018-04-29T01:35:13.473Z,16.24
2018-04-29T01:37:41.065Z,16.35
2018-04-29T01:40:08.665Z,16.49
2018-04-29T01:42:36.306Z,16.54
2018-04-29T01:45:03.929Z,16.53
2018-04-29T01:47:31.529Z,16.46
2018-04-29T01:49:59.165Z,16.65
2018-04-29T01:52:26.822Z,16.68
2018-04-29T01:54:54.430Z,16.55
2018-04-29T01:57:22.053Z,16.56
2018-04-29T01:59:49.670Z,16.52
2018-04-29T02:02:17.262Z,16.48
2018-04-29T02:04:44.889Z,16.42
2018-04-29T02:07:12.490Z,16.40
2018-04-29T02:09:40.105Z,16.37
2018-04-29T02:12:07.739Z,16.25
2018-04-29T02:14:35.334Z,16.22
2018-04-29T02:17:02.942Z,16.26
2018-04-29T02:19:30.561Z,16.12
2018-04-29T02:21:58.161Z,16.14
2018-04-29T02:24:25.789Z,16.15
2018-04-29T02:26:53.530Z,16.22
2018-04-29T02:29:21.144Z,16.29
2018-04-29T02:31:48.790Z,16.17
2018-04-29T02:34:16.486Z,16.08
2018-04-29T02:36:44.083Z,16.16
2018-04-29T02:39:11.700Z,16.13
2018-04-29T02:41:39.633Z,16.11
2018-04-29T02:44:07.245Z,16.18
2018-04-29T02:46:34.862Z,16.23
2018-04-29T02:49:02.505Z,16.15
2018-04-29T02:51:30.099Z,16.12
2018-04-29T02:53:57.730Z,16.12
2018-04-29T02:56:25.358Z,16.17
2018-04-29T02:58:52.980Z,16.26
2018-04-29T03:01:20.601Z,16.35
2018-04-29T03:03:48.229Z,16.21
2018-04-29T03:06:15.830Z,16.47
2018-04-29T03:08:43.453Z,16.42
2018-04-29T03:11:11.118Z,16.38
2018-04-29T03:13:38.705Z,16.32
2018-04-29T03:16:06.369Z,16.35
2018-04-29T03:18:34.013Z,16.33
2018-04-29T03:21:03.150Z,16.34
2018-04-29T03:23:30.761Z,16.37
2018-04-29T03:25:58.385Z,16.43
2018-04-29T03:28:25.981Z,16.28
2018-04-29T03:30:53.575Z,16.26
2018-04-29T03:33:21.260Z,16.12
2018-04-29T03:35:48.845Z,15.90
2018-04-29T03:38:16.443Z,15.95
2018-04-29T03:40:44.061Z,15.96
2018-04-29T03:43:11.645Z,15.93
2018-04-29T03:45:39.233Z,15.89
2018-04-29T03:48:06.891Z,16.00
2018-04-29T03:50:34.504Z,16.07
2018-04-29T03:53:02.125Z,16.15
2018-04-29T03:55:29.809Z,16.04
2018-04-29T03:58:09.160Z,15.99
2018-04-29T04:00:51.185Z,16.00
2018-04-29T04:03:30.576Z,16.18
2018-04-29T04:05:58.206Z,16.24
2018-04-29T04:08:25.793Z,16.32
2018-04-29T04:10:53.438Z,16.32
2018-04-29T04:13:21.078Z,16.38
2018-04-29T04:15:48.696Z,16.21
2018-04-29T04:18:16.349Z,16.30
2018-04-29T04:20:43.969Z,16.44
2018-04-29T04:23:11.561Z,16.53
2018-04-29T04:25:39.157Z,16.41
2018-04-29T04:28:06.789Z,16.45
2018-04-29T04:30:34.389Z,16.64
2018-04-29T04:33:01.973Z,16.62
2018-04-29T04:35:29.609Z,16.60
2018-04-29T04:37:57.193Z,16.67
2018-04-29T04:40:24.797Z,16.78
2018-04-29T04:42:52.413Z,16.88
2018-04-29T04:45:19.997Z,17.00
2018-04-29T04:47:47.589Z,17.07
2018-04-29T04:50:15.222Z,16.98
2018-04-29T04:52:42.833Z,16.92
2018-04-29T04:55:10.432Z,16.97
2018-04-29T04:57:38.088Z,17.15
2018-04-29T05:00:05.801Z,16.98
2018-04-29T05:02:33.427Z,17.03
2018-04-29T05:05:01.061Z,17.14
2018-04-29T05:07:28.656Z,16.79
2018-04-29T05:09:56.249Z,16.89
2018-04-29T05:12:23.937Z,16.84
2018-04-29T05:14:51.532Z,17.03
2018-04-29T05:17:19.130Z,16.99
2018-04-29T05:19:46.761Z,16.98
2018-04-29T05:22:14.381Z,17.11
2018-04-29T05:24:41.999Z,16.77
2018-04-29T05:27:09.655Z,16.71
2018-04-29T05:29:37.249Z,16.50
2018-04-29T05:32:04.837Z,16.67
2018-04-29T05:34:32.470Z,16.69
2018-04-29T05:37:00.058Z,16.85
2018-04-29T05:39:27.643Z,16.71
2018-04-29T05:41:55.310Z,16.42
2018-04-29T05:44:22.922Z,16.47
2018-04-29T05:46:50.563Z,16.45
2018-04-29T05:49:18.218Z,16.60
2018-04-29T05:51:45.844Z,16.46
2018-04-29T05:54:13.457Z,16.64
2018-04-29T05:56:41.085Z,16.64
2018-04-29T05:59:08.698Z,16.89
2018-04-29T06:01:36.319Z,16.96
2018-04-29T06:04:04.018Z,17.05
2018-04-29T06:06:31.712Z,17.11
2018-04-29T06:08:59.306Z,16.98
2018-04-29T06:11:26.966Z,17.18
2018-04-29T06:13:54.611Z,17.39
2018-04-29T06:16:22.235Z,17.30
2018-04-29T06:18:50.720Z,17.59
2018-04-29T06:21:18.317Z,17.81
2018-04-29T06:23:45.904Z,18.04
2018-04-29T06:26:13.595Z,17.96
2018-04-29T06:28:41.246Z,18.34
2018-04-29T06:31:08.837Z,18.60
2018-04-29T06:33:36.561Z,18.68
2018-04-29T06:36:04.189Z,19.06
2018-04-29T06:38:31.794Z,19.03
2018-04-29T06:40:59.418Z,19.10
2018-04-29T06:43:27.021Z,19.47
2018-04-29T06:45:54.631Z,19.89
2018-04-29T06:48:22.265Z,20.32
2018-04-29T06:50:49.841Z,20.61
2018-04-29T06:53:17.453Z,20.63
2018-04-29T06:55:45.515Z,21.04
2018-04-29T06:58:13.113Z,21.14
2018-04-29T07:00:40.830Z,20.84
2018-04-29T07:03:08.492Z,20.68
2018-04-29T07:05:36.140Z,20.80
2018-04-29T07:08:03.725Z,21.38
2018-04-29T07:10:31.341Z,21.70
2018-04-29T07:12:58.961Z,21.37
2018-04-29T07:15:26.587Z,21.52
2018-04-29T07:17:54.257Z,21.54
2018-04-29T07:20:21.879Z,22.19
2018-04-29T07:22:49.489Z,22.19
2018-04-29T07:25:17.202Z,22.58
2018-04-29T07:27:44.813Z,22.08
2018-04-29T07:30:12.470Z,22.55
2018-04-29T07:32:40.148Z,22.57
2018-04-29T07:35:13.638Z,23.56
2018-04-29T07:37:41.333Z,24.19
2018-04-29T07:40:09.009Z,24.17
2018-04-29T07:42:36.625Z,24.10
2018-04-29T07:45:04.342Z,23.83
2018-04-29T07:47:31.954Z,24.38
2018-04-29T07:49:59.722Z,24.42
2018-04-29T07:52:27.580Z,24.61
2018-04-29T07:54:55.110Z,24.49
2018-04-29T07:57:22.733Z,24.86
2018-04-29T07:59:50.429Z,24.89
2018-04-29T08:02:18.102Z,24.20
2018-04-29T08:04:45.709Z,24.46
2018-04-29T08:07:14.467Z,24.68
2018-04-29T08:09:42.116Z,24.49
2018-04-29T08:12:09.770Z,25.03
2018-04-29T08:14:37.506Z,25.07
2018-04-29T08:17:05.178Z,25.06
2018-04-29T08:19:32.939Z,25.68
2018-04-29T08:22:00.737Z,25.80
2018-04-29T08:24:28.435Z,26.25
2018-04-29T08:26:56.146Z,25.96
2018-04-29T08:29:23.925Z,26.28
2018-04-29T08:31:51.601Z,26.51
2018-04-29T08:34:19.266Z,26.62
2018-04-29T08:36:46.925Z,27.04
2018-04-29T08:39:14.545Z,26.68
2018-04-29T08:41:42.204Z,27.18
2018-04-29T08:44:09.882Z,27.48
2018-04-29T08:46:37.550Z,27.80
2018-04-29T08:49:05.150Z,27.28
2018-04-29T08:51:34.813Z,27.53
2018-04-29T08:54:02.434Z,27.43
2018-04-29T08:56:30.026Z,27.49
2018-04-29T08:58:57.715Z,27.98
2018-04-29T09:01:25.325Z,28.22
2018-04-29T09:03:52.980Z,28.63
2018-04-29T09:06:20.575Z,28.12
2018-04-29T09:08:48.162Z,28.39
2018-04-29T09:11:15.780Z,28.82
2018-04-29T09:13:43.401Z,29.07
2018-04-29T09:16:11.007Z,28.49
2018-04-29T09:18:38.615Z,29.03
2018-04-29T09:21:06.234Z,29.00
2018-04-29T09:23:33.877Z,28.62
2018-04-29T09:26:01.465Z,28.82
2018-04-29T09:28:29.098Z,29.13
2018-04-29T09:30:56.696Z,29.63
2018-04-29T09:33:24.292Z,30.40
2018-04-29T09:35:51.929Z,30.79
2018-04-29T09:38:19.538Z,29.89
2018-04-29T09:40:47.203Z,30.71
2018-04-29T09:43:14.889Z,30.52
2018-04-29T09:45:42.470Z,30.23
2018-04-29T09:48:10.082Z,30.11
2018-04-29T09:50:37.737Z,30.36
2018-04-29T09:53:05.333Z,31.05
2018-04-29T09:55:32.925Z,31.22
2018-04-29T09:58:00.558Z,30.65
2018-04-29T10:00:28.231Z,30.56
2018-04-29T10:03:11.698Z,30.53
2018-04-29T10:05:39.325Z,31.47
2018-04-29T10:08:06.961Z,30.88
2018-04-29T10:10:34.597Z,31.15
2018-04-29T10:13:02.186Z,31.56
2018-04-29T10:15:29.776Z,30.51
2018-04-29T10:17:57.413Z,32.33
2018-04-29T10:20:25.001Z,31.12
2018-04-29T10:22:52.591Z,31.51
2018-04-29T10:25:20.260Z,31.34
2018-04-29T10:27:47.876Z,32.11
2018-04-29T10:30:15.473Z,31.66
2018-04-29T10:32:43.138Z,32.01
2018-04-29T10:35:10.729Z,31.30
2018-04-29T10:37:38.329Z,31.13
2018-04-29T10:40:06.042Z,30.98
2018-04-29T10:42:33.662Z,31.68
2018-04-29T10:45:01.268Z,30.90
2018-04-29T10:47:28.893Z,31.57
2018-04-29T10:49:56.473Z,31.72
2018-04-29T10:52:24.159Z,30.66
2018-04-29T10:54:51.795Z,30.74
2018-04-29T10:57:19.423Z,31.42
2018-04-29T10:59:47.122Z,31.68
2018-04-29T11:02:14.908Z,31.48
2018-04-29T11:04:42.598Z,32.41
2018-04-29T11:07:10.209Z,32.09
2018-04-29T11:09:37.881Z,31.97
2018-04-29T11:12:05.549Z,31.81
2018-04-29T11:14:33.223Z,31.75
2018-04-29T11:17:00.877Z,31.69
2018-04-29T11:19:28.571Z,32.18
2018-04-29T11:21:56.234Z,32.55
2018-04-29T11:24:24.010Z,32.62
2018-04-29T11:26:51.715Z,32.31
2018-04-29T11:29:19.418Z,32.37
2018-04-29T11:31:47.064Z,33.22
2018-04-29T11:34:14.749Z,32.43
2018-04-29T11:36:42.401Z,32.40
2018-04-29T11:39:10.038Z,32.58
2018-04-29T11:41:37.658Z,33.07
2018-04-29T11:44:05.320Z,32.49
2018-04-29T11:46:32.984Z,31.86
2018-04-29T11:49:00.593Z,32.36
2018-04-29T11:51:28.306Z,31.49
2018-04-29T11:53:55.986Z,31.70
2018-04-29T11:56:23.666Z,31.77
2018-04-29T11:58:51.280Z,31.45
2018-04-29T12:01:18.937Z,31.28
2018-04-29T12:03:46.553Z,30.95
2018-04-29T12:06:14.161Z,31.53
2018-04-29T12:08:41.790Z,31.24
2018-04-29T12:11:09.369Z,31.57
2018-04-29T12:13:36.953Z,31.45
2018-04-29T12:16:04.617Z,31.24
2018-04-29T12:18:32.206Z,30.52
2018-04-29T12:20:59.797Z,30.82
2018-04-29T12:23:27.422Z,31.00
2018-04-29T12:25:55.041Z,30.95
2018-04-29T12:28:22.629Z,31.63
2018-04-29T12:30:50.249Z,31.56
2018-04-29T12:33:17.827Z,30.45
2018-04-29T12:35:45.453Z,31.21
2018-04-29T12:38:13.141Z,30.67
2018-04-29T12:40:40.718Z,31.22
2018-04-29T12:43:08.293Z,30.94
2018-04-29T12:45:35.910Z,30.68
2018-04-29T12:48:03.498Z,30.42
2018-04-29T12:50:31.109Z,30.34
2018-04-29T12:52:58.747Z,29.96
2018-04-29T12:55:26.349Z,29.36
2018-04-29T12:57:53.974Z,29.62
2018-04-29T13:00:21.638Z,29.95
2018-04-29T13:02:49.205Z,29.68
2018-04-29T13:05:16.886Z,29.85
2018-04-29T13:07:44.569Z,29.35
2018-04-29T13:10:12.154Z,29.64
2018-04-29T13:12:39.750Z,28.92
2018-04-29T13:15:07.374Z,28.64
2018-04-29T13:17:34.972Z,29.16
2018-04-29T13:20:02.571Z,28.69
2018-04-29T13:22:30.200Z,28.68
2018-04-29T13:24:57.780Z,28.68
2018-04-29T13:27:25.387Z,28.72
2018-04-29T13:29:53.041Z,28.22
2018-04-29T13:32:20.663Z,27.68
2018-04-29T13:34:48.251Z,27.63
2018-04-29T13:37:15.897Z,27.52
2018-04-29T13:39:43.489Z,27.51
2018-04-29T13:42:11.176Z,27.49
2018-04-29T13:44:38.757Z,27.33
2018-04-29T13:47:06.350Z,27.14
2018-04-29T13:49:33.950Z,27.26
2018-04-29T13:52:01.598Z,27.14
2018-04-29T13:54:29.183Z,26.63
2018-04-29T13:56:56.782Z,26.55
2018-04-29T13:59:24.366Z,26.56
2018-04-29T14:01:52.038Z,26.70
2018-04-29T14:04:19.643Z,26.47
2018-04-29T14:06:47.309Z,26.57
2018-04-29T14:09:14.909Z,26.33
2018-04-29T14:11:42.510Z,26.36
2018-04-29T14:14:10.099Z,26.16
2018-04-29T14:16:37.807Z,26.27
2018-04-29T14:19:05.412Z,26.17
2018-04-29T14:21:33.008Z,26.06
2018-04-29T14:24:00.598Z,26.04
2018-04-29T14:26:28.177Z,26.14
2018-04-29T14:28:55.769Z,26.09
2018-04-29T14:31:23.450Z,26.03
2018-04-29T14:33:51.023Z,26.04
2018-04-29T14:36:18.614Z,26.01
2018-04-29T14:38:46.249Z,26.05
2018-04-29T14:41:13.850Z,25.99
2018-04-29T14:43:41.441Z,25.99
2018-04-29T14:46:09.034Z,25.88
2018-04-29T14:48:36.633Z,25.93
2018-04-29T14:51:04.248Z,25.91
2018-04-29T14:53:31.838Z,25.93
2018-04-29T14:55:59.479Z,25.64
2018-04-29T14:58:27.083Z,25.69
2018-04-29T15:00:54.661Z,25.73
2018-04-29T15:03:22.246Z,25.76
2018-04-29T15:05:49.862Z,25.91
2018-04-29T15:08:17.462Z,25.90
2018-04-29T15:10:45.046Z,25.87
2018-04-29T15:13:12.674Z,25.74
2018-04-29T15:15:40.355Z,25.68
2018-04-29T15:18:07.969Z,25.87
2018-04-29T15:20:35.598Z,25.93
2018-04-29T15:23:03.225Z,25.87
2018-04-29T15:25:30.818Z,26.08
2018-04-29T15:27:58.485Z,25.83
2018-04-29T15:30:26.082Z,25.52
2018-04-29T15:32:53.665Z,25.32
2018-04-29T15:35:21.292Z,25.08
2018-04-29T15:37:48.877Z,24.97
2018-04-29T15:40:16.470Z,24.95
2018-04-29T15:42:44.118Z,24.77
2018-04-29T15:45:11.722Z,24.63
2018-04-29T15:47:39.370Z,24.56
2018-04-29T15:50:07.023Z,24.43
2018-04-29T15:52:34.666Z,24.38
2018-04-29T15:55:02.256Z,24.30
2018-04-29T15:57:29.914Z,24.27
2018-04-29T15:59:57.518Z,24.25
2018-04-29T16:02:25.114Z,24.14
2018-04-29T16:04:52.778Z,24.18
2018-04-29T16:07:20.378Z,24.17
2018-04-29T16:09:47.973Z,24.14
2018-04-29T16:12:15.609Z,24.22
2018-04-29T16:14:43.226Z,24.25
2018-04-29T16:17:10.942Z,24.24
2018-04-29T16:19:38.558Z,24.15
2018-04-29T16:22:06.141Z,24.08
2018-04-29T16:24:33.733Z,23.99
2018-04-29T16:27:01.336Z,24.06
2018-04-29T16:29:28.983Z,24.05
2018-04-29T16:31:56.570Z,23.94
2018-04-29T16:34:24.165Z,23.97
2018-04-29T16:36:51.830Z,23.90
2018-04-29T16:39:19.409Z,23.83
2018-04-29T16:41:46.993Z,23.70
2018-04-29T16:44:14.609Z,23.61
2018-04-29T16:46:42.198Z,23.56
2018-04-29T16:49:09.786Z,23.52
2018-04-29T16:51:37.417Z,23.39
2018-04-29T16:54:04.997Z,23.39
2018-04-29T16:56:32.677Z,23.25
2018-04-29T16:59:00.394Z,23.16
2018-04-29T17:01:28.075Z,23.16
2018-04-29T17:03:55.686Z,23.08
2018-04-29T17:06:23.381Z,23.09
2018-04-29T17:08:50.994Z,22.91
2018-04-29T17:11:18.630Z,22.82
2018-04-29T17:13:46.310Z,22.84
2018-04-29T17:16:13.897Z,22.76
2018-04-29T17:18:41.558Z,22.67
2018-04-29T17:21:09.922Z,22.61
2018-04-29T17:23:37.511Z,22.56
2018-04-29T17:26:05.219Z,22.45
2018-04-29T17:28:32.805Z,22.23
2018-04-29T17:31:00.425Z,22.28
2018-04-29T17:33:28.042Z,22.16
2018-04-29T17:35:55.633Z,22.07
2018-04-29T17:38:23.254Z,22.11
2018-04-29T17:40:50.874Z,21.86
2018-04-29T17:43:18.491Z,21.82
2018-04-29T17:45:46.109Z,21.72
2018-04-29T17:48:13.741Z,21.54
2018-04-29T17:50:41.325Z,21.65
2018-04-29T17:53:08.910Z,21.52
2018-04-29T17:55:36.535Z,21.47
2018-04-29T17:58:04.239Z,21.42
2018-04-29T18:00:31.842Z,21.36
2018-04-29T18:02:59.512Z,21.29
2018-04-29T18:05:27.194Z,21.13
2018-04-29T18:07:54.815Z,21.11
2018-04-29T18:10:22.474Z,21.13
2018-04-29T18:12:50.106Z,21.01
2018-04-29T18:15:17.718Z,20.94
2018-04-29T18:17:45.393Z,20.78
2018-04-29T18:20:13.002Z,20.75
2018-04-29T18:22:40.662Z,20.65
2018-04-29T18:25:08.282Z,20.62
2018-04-29T18:27:36.070Z,20.55
2018-04-29T18:30:03.746Z,20.36
2018-04-29T18:32:31.373Z,20.42
2018-04-29T18:34:59.067Z,20.37
2018-04-29T18:37:26.782Z,20.35
2018-04-29T18:39:54.509Z,20.39
2018-04-29T18:42:22.209Z,20.39
2018-04-29T18:44:49.854Z,20.28
2018-04-29T18:47:17.442Z,20.24
2018-04-29T18:49:45.129Z,20.12
2018-04-29T18:52:12.778Z,20.06
2018-04-29T18:54:40.403Z,20.00
2018-04-29T18:57:08.101Z,20.03
2018-04-29T18:59:35.726Z,19.98
2018-04-29T19:02:03.362Z,19.93
2018-04-29T19:04:30.990Z,19.92
2018-04-29T19:06:58.590Z,19.88
2018-04-29T19:09:26.203Z,19.73
2018-04-29T19:11:53.903Z,19.59
2018-04-29T19:14:21.534Z,19.59
2018-04-29T19:16:49.323Z,19.51
2018-04-29T19:19:16.938Z,19.33
2018-04-29T19:21:44.574Z,19.42
2018-04-29T19:24:12.361Z,19.32
2018-04-29T19:26:40.546Z,19.33
2018-04-29T19:29:08.161Z,19.32
2018-04-29T19:31:36.777Z,19.05
2018-04-29T19:34:04.322Z,19.10
2018-04-29T19:36:31.910Z,19.07
2018-04-29T19:38:59.504Z,18.95
2018-04-29T19:41:27.082Z,18.99
2018-04-29T19:43:54.758Z,18.89
2018-04-29T19:46:22.326Z,18.91
2018-04-29T19:48:49.922Z,18.80
2018-04-29T19:51:17.700Z,18.73
2018-04-29T19:53:45.381Z,18.63
2018-04-29T19:56:13.079Z,18.57
2018-04-29T19:58:40.818Z,18.48
2018-04-29T20:01:08.434Z,18.38
2018-04-29T20:03:36.148Z,18.50
2018-04-29T20:06:03.754Z,18.32
2018-04-29T20:08:31.337Z,18.27
2018-04-29T20:10:59.029Z,18.25
2018-04-29T20:13:26.738Z,18.18
2018-04-29T20:15:55.294Z,18.10
2018-04-29T20:18:23.089Z,18.08
2018-04-29T20:20:50.725Z,17.97
2018-04-29T20:23:18.338Z,18.11
2018-04-29T20:25:45.965Z,18.04
2018-04-29T20:28:13.639Z,17.91
2018-04-29T20:30:41.295Z,17.69
2018-04-29T20:33:08.909Z,17.84
2018-04-29T20:35:36.578Z,17.80
2018-04-29T20:38:04.283Z,17.72
2018-04-29T20:40:31.886Z,17.73
2018-04-29T20:42:59.552Z,17.77
2018-04-29T20:45:27.168Z,17.77
2018-04-29T20:47:54.794Z,17.57
2018-04-29T20:50:22.562Z,17.54
2018-04-29T20:52:50.253Z,17.52
2018-04-29T20:55:18.084Z,17.31
2018-04-29T20:57:45.785Z,17.31
2018-04-29T21:00:13.429Z,17.27
2018-04-29T21:02:41.074Z,17.28
2018-04-29T21:05:08.790Z,17.30
2018-04-29T21:07:36.499Z,17.19
2018-04-29T21:10:04.162Z,17.03
2018-04-29T21:12:31.831Z,17.06
2018-04-29T21:14:59.526Z,16.97
2018-04-29T21:17:27.325Z,16.87
2018-04-29T21:19:54.962Z,16.90
2018-04-29T21:22:22.668Z,16.81
2018-04-29T21:24:50.281Z,16.83
2018-04-29T21:27:17.905Z,16.78
2018-04-29T21:29:46.034Z,16.55
2018-04-29T21:32:13.693Z,16.68
2018-04-29T21:34:41.407Z,16.70
2018-04-29T21:37:09.082Z,16.78
2018-04-29T21:39:36.729Z,16.47
2018-04-29T21:42:04.375Z,16.51
2018-04-29T21:44:32.056Z,16.31
2018-04-29T21:46:59.762Z,16.36
2018-04-29T21:49:27.402Z,16.43
2018-04-29T21:51:55.102Z,16.43
2018-04-29T21:54:22.790Z,16.38
2018-04-29T21:56:50.410Z,16.49
2018-04-29T21:59:18.130Z,16.45
2018-04-29T22:01:45.846Z,16.26
2018-04-29T22:04:13.566Z,16.24
2018-04-29T22:06:41.235Z,16.38
2018-04-29T22:09:08.941Z,16.35
2018-04-29T22:11:36.656Z,16.42
2018-04-29T22:14:04.310Z,16.20
2018-04-29T22:16:31.994Z,16.18
2018-04-29T22:18:59.735Z,16.04
2018-04-29T22:21:27.429Z,16.03
2018-04-29T22:23:55.146Z,16.01
2018-04-29T22:26:22.839Z,16.05
2018-04-29T22:28:50.460Z,15.91
2018-04-29T22:31:18.156Z,15.96
2018-04-29T22:33:45.789Z,15.96
2018-04-29T22:36:13.393Z,15.91
2018-04-29T22:38:41.045Z,15.91
2018-04-29T22:41:08.722Z,15.81
2018-04-29T22:43:36.394Z,15.72
2018-04-29T22:46:04.018Z,15.71
2018-04-29T22:48:31.634Z,15.77
2018-04-29T22:50:59.290Z,15.69
2018-04-29T22:53:26.980Z,15.74
2018-04-29T22:55:54.585Z,15.76
2018-04-29T22:58:22.296Z,15.63
2018-04-29T23:00:50.014Z,15.63
2018-04-29T23:03:17.650Z,15.52
2018-04-29T23:05:45.331Z,15.35
2018-04-29T23:08:12.998Z,15.35
2018-04-29T23:10:40.617Z,15.50
2018-04-29T23:13:08.290Z,15.40
2018-04-29T23:15:35.877Z,15.40
2018-04-29T23:18:03.594Z,15.37
2018-04-29T23:20:31.294Z,15.40
2018-04-29T23:22:58.941Z,15.46
2018-04-29T23:25:26.626Z,15.47
2018-04-29T23:27:54.242Z,15.43
2018-04-29T23:30:21.957Z,15.40
2018-04-29T23:32:49.672Z,15.27
2018-04-29T23:35:17.297Z,15.33
2018-04-29T23:37:44.950Z,15.32
2018-04-29T23:40:12.586Z,15.31
2018-04-29T23:42:40.242Z,15.30
2018-04-29T23:45:07.873Z,15.29
2018-04-29T23:47:35.622Z,15.42
2018-04-29T23:50:03.303Z,15.52
2018-04-29T23:52:30.942Z,15.41
2018-04-29T23:54:58.635Z,15.40
2018-04-29T23:57:26.296Z,15.40
2018-04-29T23:59:53.983Z,15.46
